Time;durP1;ratioP1;P1;durP2;ratioP2;P2;SDS_P1;SDS_P2;PMS_P1;PMS_P2;Temp;Humidity;BMP_temperature;BMP_pressure;BME280_temperature;BME280_humidity;BME280_pressure;Samples;Min_cycle;Max_cycle;Signal;HPM_P1;HPM_P2
2023/10/18 00:02:49;;;;;;;6.63;3.30;;;21.30;99.90;;;;;;5114124;28;20028;-64
2023/10/18 00:05:18;;;;;;;7.03;3.55;;;21.30;99.90;;;;;;5114546;28;20402;-64
2023/10/18 00:07:44;;;;;;;5.55;3.50;;;21.30;99.90;;;;;;5114331;28;20437;-64
2023/10/18 00:10:10;;;;;;;5.22;3.25;;;21.30;99.90;;;;;;5113985;28;20104;-64
2023/10/18 00:12:38;;;;;;;6.30;3.17;;;21.30;99.90;;;;;;5114416;28;20023;-65
2023/10/18 00:15:05;;;;;;;6.68;3.42;;;21.10;99.90;;;;;;5114141;28;20042;-64
2023/10/18 00:17:32;;;;;;;7.32;3.50;;;21.10;99.90;;;;;;5114207;28;20032;-65
2023/10/18 00:19:58;;;;;;;5.40;3.20;;;21.00;99.90;;;;;;5114214;28;20031;-64
2023/10/18 00:22:23;;;;;;;5.72;3.40;;;20.80;99.90;;;;;;5114020;28;20383;-65
2023/10/18 00:24:49;;;;;;;5.18;3.63;;;20.80;99.90;;;;;;5114369;28;20020;-64
2023/10/18 00:27:14;;;;;;;7.15;3.60;;;20.70;99.90;;;;;;5114099;28;20485;-64
2023/10/18 00:29:43;;;;;;;5.75;3.38;;;20.60;99.90;;;;;;5113673;28;20051;-64
2023/10/18 00:32:09;;;;;;;7.00;3.83;;;20.50;99.90;;;;;;5096108;28;20110;-64
2023/10/18 00:34:35;;;;;;;6.32;3.55;;;20.50;99.90;;;;;;5113887;28;20024;-65
2023/10/18 00:37:01;;;;;;;7.03;3.70;;;20.50;99.90;;;;;;5113917;28;20106;-64
2023/10/18 00:39:27;;;;;;;7.45;3.97;;;20.50;99.90;;;;;;5113973;28;20035;-65
2023/10/18 00:42:23;;;;;;;6.57;3.70;;;20.40;99.90;;;;;;5113707;28;20024;-64
2023/10/18 00:44:41;;;;;;;6.40;3.80;;;20.40;99.90;;;;;;5113122;28;20031;-64
2023/10/18 00:47:10;;;;;;;6.70;3.95;;;20.40;99.90;;;;;;5113493;28;20042;-63
2023/10/18 00:49:36;;;;;;;7.20;3.63;;;20.30;99.90;;;;;;5113682;28;20027;-64
2023/10/18 00:52:02;;;;;;;6.07;3.60;;;20.30;99.90;;;;;;5113551;28;20032;-65
2023/10/18 00:54:29;;;;;;;6.90;3.60;;;20.30;99.90;;;;;;5113742;28;20028;-64
2023/10/18 00:56:55;;;;;;;8.25;3.33;;;20.30;99.90;;;;;;5113142;28;20028;-65
2023/10/18 00:59:22;;;;;;;6.57;3.25;;;20.30;99.90;;;;;;5113036;28;20099;-64
2023/10/18 01:01:58;;;;;;;6.47;3.70;;;20.30;99.90;;;;;;5113219;28;20028;-65
2023/10/18 01:04:26;;;;;;;6.97;3.60;;;20.30;99.90;;;;;;5113138;28;20012;-65
2023/10/18 01:06:51;;;;;;;7.65;3.40;;;20.30;99.90;;;;;;5113015;28;20080;-64
2023/10/18 01:09:18;;;;;;;7.35;3.60;;;20.30;99.90;;;;;;5113323;28;20019;-64
2023/10/18 01:11:46;;;;;;;6.65;3.85;;;20.40;99.90;;;;;;5112990;28;20043;-64
2023/10/18 01:14:18;;;;;;;10.80;3.85;;;20.50;99.90;;;;;;5112715;28;20023;-64
2023/10/18 01:16:44;;;;;;;6.25;3.90;;;20.50;99.90;;;;;;5113138;28;20066;-64
2023/10/18 01:19:14;;;;;;;8.05;3.80;;;20.60;99.90;;;;;;5112990;28;20027;-64
2023/10/18 01:21:45;;;;;;;8.15;3.50;;;20.60;99.90;;;;;;5113075;28;20397;-64
2023/10/18 01:24:14;;;;;;;7.25;3.55;;;20.60;99.90;;;;;;5112425;28;20106;-64
2023/10/18 01:26:40;;;;;;;7.75;4.10;;;20.60;99.90;;;;;;5113151;28;20107;-64
2023/10/18 01:29:09;;;;;;;5.78;3.22;;;20.70;99.90;;;;;;5112436;28;20505;-64
2023/10/18 01:31:36;;;;;;;6.00;3.20;;;20.70;99.90;;;;;;5112692;28;20032;-65
2023/10/18 01:34:05;;;;;;;7.72;3.55;;;20.80;99.90;;;;;;5112678;28;20501;-65
2023/10/18 01:36:38;;;;;;;7.25;3.35;;;20.70;99.90;;;;;;5113021;28;20107;-64
2023/10/18 01:39:52;;;;;;;7.72;3.72;;;20.70;99.90;;;;;;5112598;28;20497;-65
2023/10/18 01:41:54;;;;;;;7.25;3.33;;;20.70;99.90;;;;;;5101327;28;20035;-64
2023/10/18 01:44:33;;;;;;;5.82;3.25;;;20.70;99.90;;;;;;5112284;28;20110;-65
2023/10/18 01:47:09;;;;;;;6.97;3.40;;;20.70;99.90;;;;;;5112399;28;20019;-65
2023/10/18 01:49:44;;;;;;;6.78;3.30;;;20.60;99.90;;;;;;5112298;28;20020;-64
2023/10/18 01:52:12;;;;;;;7.65;3.58;;;20.50;99.90;;;;;;5112416;28;20571;-64
2023/10/18 01:54:38;;;;;;;7.70;3.60;;;20.40;99.90;;;;;;5112643;28;20394;-65
2023/10/18 01:57:06;;;;;;;6.30;3.50;;;20.30;99.90;;;;;;5111961;28;20034;-64
2023/10/18 01:59:34;;;;;;;8.70;3.65;;;20.30;99.90;;;;;;5094297;28;20398;-65
2023/10/18 02:02:05;;;;;;;6.90;3.30;;;20.20;99.90;;;;;;5112113;28;20241;-64
2023/10/18 02:04:36;;;;;;;6.80;3.42;;;20.20;99.90;;;;;;5112149;28;20024;-65
2023/10/18 02:07:02;;;;;;;8.18;3.50;;;20.10;99.90;;;;;;5112097;28;20034;-65
2023/10/18 02:09:48;;;;;;;7.63;3.28;;;20.10;99.90;;;;;;5112153;28;20035;-65
2023/10/18 02:12:20;;;;;;;5.53;3.30;;;20.10;99.90;;;;;;5111615;28;20069;-65
2023/10/18 02:14:47;;;;;;;7.07;3.92;;;20.10;99.90;;;;;;5112350;28;20375;-65
2023/10/18 02:17:13;;;;;;;5.47;3.25;;;20.10;99.90;;;;;;5110940;28;20485;-65
2023/10/18 02:19:39;;;;;;;7.50;3.90;;;20.10;99.90;;;;;;5111927;28;20023;-65
2023/10/18 02:22:08;;;;;;;8.35;3.20;;;20.10;99.90;;;;;;5112431;28;20024;-65
2023/10/18 02:24:34;;;;;;;7.80;3.67;;;20.20;99.90;;;;;;5111672;28;20423;-65
2023/10/18 02:27:00;;;;;;;5.72;3.40;;;20.20;99.90;;;;;;5111099;28;20019;-65
2023/10/18 02:29:35;;;;;;;6.53;3.30;;;20.20;99.90;;;;;;5093733;28;20079;-65
2023/10/18 02:32:04;;;;;;;8.43;3.70;;;20.20;99.90;;;;;;5112087;28;20485;-64
2023/10/18 02:34:33;;;;;;;6.32;3.20;;;20.20;99.90;;;;;;5111636;28;20039;-65
2023/10/18 02:37:04;;;;;;;7.63;3.53;;;20.20;99.90;;;;;;5111524;28;20030;-65
2023/10/18 02:39:34;;;;;;;6.00;3.47;;;20.20;99.90;;;;;;5111532;28;20057;-65
2023/10/18 02:42:00;;;;;;;7.90;3.20;;;20.30;99.90;;;;;;5111336;28;20041;-65
2023/10/18 02:44:28;;;;;;;6.25;3.10;;;20.30;99.90;;;;;;5111592;28;20103;-64
2023/10/18 02:46:55;;;;;;;5.95;3.50;;;20.30;99.90;;;;;;5111674;28;20031;-64
2023/10/18 02:49:23;;;;;;;7.53;3.50;;;20.40;99.90;;;;;;5111804;28;20088;-64
2023/10/18 02:51:50;;;;;;;5.40;3.17;;;20.50;99.90;;;;;;5111178;28;20031;-65
2023/10/18 02:54:16;;;;;;;6.07;3.50;;;20.70;99.90;;;;;;5111277;28;20059;-64
2023/10/18 02:56:55;;;;;;;7.40;3.22;;;20.80;99.90;;;;;;5111187;28;20032;-65
2023/10/18 02:59:24;;;;;;;8.27;3.70;;;20.90;99.90;;;;;;5111350;28;20031;-64
2023/10/18 03:01:54;;;;;;;4.20;2.83;;;20.90;99.90;;;;;;5111085;28;20020;-64
2023/10/18 03:04:22;;;;;;;6.75;3.50;;;21.00;99.90;;;;;;5111675;28;20024;-64
2023/10/18 03:06:52;;;;;;;8.18;3.15;;;21.00;99.90;;;;;;5110794;28;20093;-65
2023/10/18 03:09:27;;;;;;;8.55;3.30;;;21.00;99.90;;;;;;5111725;28;20032;-65
2023/10/18 03:11:57;;;;;;;11.35;3.72;;;21.00;99.90;;;;;;5111318;28;20097;-64
2023/10/18 03:14:27;;;;;;;7.50;3.40;;;21.10;99.90;;;;;;5111196;28;20444;-65
2023/10/18 03:16:55;;;;;;;7.88;3.20;;;21.10;99.90;;;;;;5111114;28;20065;-65
2023/10/18 03:19:22;;;;;;;9.88;3.40;;;21.10;99.90;;;;;;5111268;28;20034;-65
2023/10/18 03:21:50;;;;;;;7.05;3.13;;;21.10;99.90;;;;;;5111130;28;20032;-65
2023/10/18 03:24:19;;;;;;;9.20;3.63;;;21.10;99.90;;;;;;5110532;28;20101;-64
2023/10/18 03:26:46;;;;;;;8.13;3.47;;;21.10;99.90;;;;;;5111272;28;20028;-65
2023/10/18 03:29:11;;;;;;;7.10;3.47;;;21.20;99.90;;;;;;5100698;28;20052;-65
2023/10/18 03:31:43;;;;;;;7.78;3.20;;;21.10;99.90;;;;;;5094708;28;20040;-63
2023/10/18 03:34:13;;;;;;;6.47;2.90;;;21.00;99.90;;;;;;5094757;28;20051;-65
2023/10/18 03:36:53;;;;;;;6.90;3.08;;;20.80;99.90;;;;;;5094548;28;20111;-64
2023/10/18 03:39:25;;;;;;;10.95;3.70;;;20.80;99.90;;;;;;5094222;28;20491;-64
2023/10/18 03:41:58;;;;;;;8.32;3.28;;;20.80;99.90;;;;;;5094522;28;20024;-65
2023/10/18 03:44:32;;;;;;;8.48;3.03;;;20.70;99.90;;;;;;5094455;28;20032;-65
2023/10/18 03:47:03;;;;;;;10.07;3.40;;;20.70;99.90;;;;;;5094781;28;20524;-65
2023/10/18 03:55:04;;;;;;;8.60;3.55;;;20.70;99.90;;;;;;5093986;28;20032;-64
2023/10/18 03:57:37;;;;;;;7.85;3.60;;;20.70;99.90;;;;;;5094269;28;20445;-65
2023/10/18 04:02:59;;;;;;;8.45;3.38;;;20.70;99.90;;;;;;5094197;28;20036;-64
2023/10/18 04:08:04;;;;;;;9.40;3.67;;;20.70;99.90;;;;;;5094469;28;20024;-65
2023/10/18 04:10:31;;;;;;;8.93;3.60;;;20.70;99.90;;;;;;5093910;28;20691;-64
2023/10/18 04:12:57;;;;;;;8.95;3.55;;;20.70;99.90;;;;;;5093872;28;20025;-64
2023/10/18 04:15:29;;;;;;;11.93;3.78;;;20.70;99.90;;;;;;5075815;28;20398;-64
2023/10/18 04:18:11;;;;;;;8.38;3.42;;;20.70;99.90;;;;;;5093704;28;20449;-65
2023/10/18 04:20:46;;;;;;;9.55;3.97;;;20.70;99.90;;;;;;5093764;28;20477;-64
2023/10/18 04:23:18;;;;;;;8.90;3.50;;;20.70;99.90;;;;;;5093351;28;20024;-64
2023/10/18 04:26:04;;;;;;;8.38;3.47;;;20.70;99.90;;;;;;5093419;28;20063;-64
2023/10/18 04:28:38;;;;;;;11.45;3.67;;;20.80;99.90;;;;;;5093478;28;20227;-65
2023/10/18 04:31:08;;;;;;;8.80;3.55;;;20.90;99.90;;;;;;5093802;28;20058;-64
2023/10/18 04:33:50;;;;;;;9.15;3.33;;;21.00;99.90;;;;;;5075430;28;20039;-64
2023/10/18 04:36:20;;;;;;;10.55;4.03;;;21.00;99.90;;;;;;5093267;28;20060;-64
2023/10/18 04:38:46;;;;;;;9.48;3.70;;;21.20;99.90;;;;;;5092916;28;20024;-64
2023/10/18 04:43:50;;;;;;;8.40;3.70;;;21.30;99.90;;;;;;5093347;28;20418;-64
2023/10/18 04:46:18;;;;;;;7.97;3.38;;;21.30;99.90;;;;;;5093171;28;20028;-64
2023/10/18 04:51:26;;;;;;;9.85;3.30;;;21.30;99.90;;;;;;5092775;28;20032;-64
2023/10/18 04:54:15;;;;;;;11.88;3.88;;;21.30;99.90;;;;;;5093209;28;20077;-64
2023/10/18 04:56:44;;;;;;;11.27;3.83;;;21.30;99.90;;;;;;5093019;28;20032;-63
2023/10/18 05:04:24;;;;;;;10.88;3.97;;;21.20;99.90;;;;;;5093019;28;20016;-64
2023/10/18 05:06:58;;;;;;;9.45;4.03;;;21.10;99.90;;;;;;5092590;28;20028;-63
2023/10/18 05:11:59;;;;;;;10.07;4.43;;;20.70;99.90;;;;;;5092920;28;20032;-63
2023/10/18 05:14:44;;;;;;;8.65;4.00;;;20.50;99.90;;;;;;5092955;28;20099;-65
2023/10/18 05:17:10;;;;;;;10.50;4.22;;;20.40;99.90;;;;;;5092755;28;20028;-63
2023/10/18 05:19:42;;;;;;;10.50;3.88;;;20.30;99.90;;;;;;5092602;28;20107;-62
2023/10/18 05:22:23;;;;;;;9.80;4.72;;;20.20;99.90;;;;;;5092267;28;20028;-63
2023/10/18 05:27:45;;;;;;;11.32;5.50;;;20.10;99.90;;;;;;5092452;28;20028;-62
2023/10/18 05:30:15;;;;;;;11.48;4.80;;;20.00;99.90;;;;;;5112819;28;20023;-62
2023/10/18 05:32:49;;;;;;;12.98;4.45;;;20.00;99.90;;;;;;5112708;28;20082;-62
2023/10/18 05:35:27;;;;;;;11.18;4.53;;;19.90;99.90;;;;;;5112306;28;20043;-63
2023/10/18 05:38:06;;;;;;;12.57;5.10;;;19.90;99.90;;;;;;5113243;28;20450;-63
2023/10/18 05:43:12;;;;;;;8.57;4.13;;;19.80;99.90;;;;;;5112700;28;20034;-64
2023/10/18 05:45:40;;;;;;;13.07;4.70;;;19.80;99.90;;;;;;5112942;28;20030;-64
2023/10/18 05:48:13;;;;;;;10.52;4.30;;;19.80;99.90;;;;;;5112478;28;20299;-64
2023/10/18 05:50:39;;;;;;;10.23;4.55;;;19.70;99.90;;;;;;5111874;28;20027;-64
2023/10/18 05:53:11;;;;;;;11.15;4.80;;;19.70;99.90;;;;;;5112446;28;20486;-64
2023/10/18 05:55:39;;;;;;;12.38;4.60;;;19.60;99.90;;;;;;5112595;28;20497;-64
2023/10/18 05:58:05;;;;;;;11.80;4.60;;;19.60;99.90;;;;;;5112322;28;20087;-64
2023/10/18 06:00:37;;;;;;;12.38;5.07;;;19.60;99.90;;;;;;5112252;28;20028;-63
2023/10/18 06:03:03;;;;;;;11.50;4.32;;;19.60;99.90;;;;;;5112051;28;20058;-63
2023/10/18 06:05:33;;;;;;;10.70;4.35;;;19.60;99.90;;;;;;5111890;28;20047;-63
2023/10/18 06:08:02;;;;;;;13.07;4.28;;;19.80;99.90;;;;;;5112558;28;20069;-63
2023/10/18 06:10:27;;;;;;;10.23;4.20;;;19.90;99.90;;;;;;5112000;28;20027;-64
2023/10/18 06:12:57;;;;;;;9.68;4.22;;;19.80;99.90;;;;;;5111697;28;20034;-64
2023/10/18 06:15:38;;;;;;;12.27;4.22;;;19.90;99.90;;;;;;5111895;28;20031;-64
2023/10/18 06:18:07;;;;;;;12.63;4.43;;;19.90;99.90;;;;;;5112011;28;20051;-64
2023/10/18 06:20:37;;;;;;;11.57;4.20;;;19.90;99.90;;;;;;5111923;28;20024;-64
2023/10/18 06:23:08;;;;;;;10.68;4.45;;;19.90;99.90;;;;;;5111971;28;20115;-64
2023/10/18 06:26:08;;;;;;;10.52;4.43;;;19.90;99.90;;;;;;5111612;28;20028;-63
2023/10/18 06:28:26;;;;;;;14.40;4.50;;;19.90;99.90;;;;;;5111129;28;20047;-64
2023/10/18 06:30:53;;;;;;;11.60;4.30;;;19.90;99.90;;;;;;5111597;28;20042;-64
2023/10/18 06:33:19;;;;;;;12.40;4.50;;;20.00;99.90;;;;;;5111478;28;20023;-63
2023/10/18 06:35:52;;;;;;;12.25;4.80;;;19.90;99.90;;;;;;5112049;28;20031;-63
2023/10/18 06:38:26;;;;;;;11.88;4.47;;;19.80;99.90;;;;;;5112181;28;20055;-64
2023/10/18 06:41:00;;;;;;;13.40;5.45;;;19.80;99.90;;;;;;5111315;28;20069;-63
2023/10/18 06:43:26;;;;;;;12.80;5.20;;;19.80;99.90;;;;;;5112086;28;20036;-63
2023/10/18 06:45:53;;;;;;;11.57;4.95;;;19.70;99.90;;;;;;5111454;28;20031;-62
2023/10/18 06:48:28;;;;;;;13.57;5.18;;;19.60;99.90;;;;;;5111228;28;20032;-63
2023/10/18 06:50:54;;;;;;;9.20;4.65;;;19.50;99.90;;;;;;5111808;28;20092;-63
2023/10/18 06:53:20;;;;;;;11.57;5.10;;;19.50;99.90;;;;;;5111544;28;20111;-63
2023/10/18 06:55:59;;;;;;;10.07;4.07;;;19.40;99.90;;;;;;5093355;28;20020;-63
2023/10/18 07:00:53;;;;;;;15.27;5.38;;;19.30;99.90;;;;;;5111842;28;20043;-63
2023/10/18 07:03:28;;;;;;;11.23;4.80;;;19.30;99.90;;;;;;5112858;28;20176;-63
2023/10/18 07:05:56;;;;;;;13.32;4.57;;;19.30;99.90;;;;;;5115629;28;20389;-63
2023/10/18 07:08:29;;;;;;;13.23;4.50;;;19.30;99.90;;;;;;5116082;28;20031;-63
2023/10/18 07:10:55;;;;;;;10.57;4.93;;;19.30;99.90;;;;;;5115072;28;20023;-61
2023/10/18 07:13:34;;;;;;;14.52;5.15;;;19.30;99.90;;;;;;5115591;28;20043;-61
2023/10/18 07:16:01;;;;;;;28.40;6.00;;;19.30;99.90;;;;;;5115637;28;20032;-61
2023/10/18 07:18:27;;;;;;;31.38;6.55;;;19.30;99.90;;;;;;5115574;28;20101;-62
2023/10/18 07:20:59;;;;;;;22.90;5.60;;;19.30;99.90;;;;;;5115486;28;20482;-62
2023/10/18 07:23:26;;;;;;;20.67;5.95;;;19.30;99.90;;;;;;5115000;28;20035;-62
2023/10/18 07:25:52;;;;;;;93.43;16.60;;;19.30;99.90;;;;;;5115331;28;20147;-62
2023/10/18 07:28:21;;;;;;;26.38;8.13;;;19.30;99.90;;;;;;5114913;28;20071;-62
2023/10/18 07:30:48;;;;;;;36.58;8.13;;;19.30;99.90;;;;;;5114404;28;20143;-62
2023/10/18 07:33:15;;;;;;;41.50;9.90;;;19.30;99.90;;;;;;5114906;28;20036;-61
2023/10/18 07:35:45;;;;;;;66.18;14.15;;;19.30;99.90;;;;;;5114736;28;20036;-62
2023/10/18 07:38:11;;;;;;;30.15;8.70;;;19.30;99.90;;;;;;5115316;28;20023;-62
2023/10/18 07:40:41;;;;;;;38.05;9.80;;;19.50;99.90;;;;;;5115186;28;20020;-62
2023/10/18 07:43:14;;;;;;;23.48;6.85;;;19.70;99.90;;;;;;5114767;28;20027;-62
2023/10/18 07:45:40;;;;;;;39.58;8.35;;;19.80;99.90;;;;;;5114721;28;20098;-62
2023/10/18 07:48:06;;;;;;;20.48;6.68;;;19.90;99.90;;;;;;5114993;28;20111;-62
2023/10/18 07:50:41;;;;;;;14.00;5.50;;;19.90;99.90;;;;;;5114737;28;20043;-62
2023/10/18 07:53:11;;;;;;;11.80;5.65;;;20.00;99.90;;;;;;5114833;28;20039;-63
2023/10/18 07:55:37;;;;;;;14.90;5.63;;;20.00;99.90;;;;;;5114710;28;20020;-63
2023/10/18 07:58:17;;;;;;;13.02;5.32;;;20.00;99.90;;;;;;5114764;28;20047;-62
2023/10/18 08:01:06;;;;;;;15.77;5.32;;;20.00;99.90;;;;;;5114302;28;20036;-62
2023/10/18 08:03:30;;;;;;;13.13;4.55;;;20.10;99.90;;;;;;5114525;28;20557;-62
2023/10/18 08:05:57;;;;;;;11.20;4.45;;;20.10;99.90;;;;;;5114422;28;20044;-63
2023/10/18 08:08:26;;;;;;;14.73;4.88;;;20.10;99.90;;;;;;5114516;28;20027;-63
2023/10/18 08:10:54;;;;;;;11.93;4.50;;;20.10;99.90;;;;;;5113034;28;20040;-62
2023/10/18 08:13:26;;;;;;;14.20;4.32;;;20.20;99.90;;;;;;5113382;28;20050;-63
2023/10/18 08:16:10;;;;;;;11.02;4.30;;;20.20;99.90;;;;;;5112611;28;20382;-64
2023/10/18 08:18:45;;;;;;;10.63;4.15;;;20.20;99.90;;;;;;5112259;28;20535;-63
2023/10/18 08:21:26;;;;;;;15.65;4.85;;;20.20;99.90;;;;;;5111690;28;20077;-64
2023/10/18 08:23:55;;;;;;;10.82;4.25;;;20.20;99.90;;;;;;5111152;28;20374;-64
2023/10/18 08:26:28;;;;;;;27.85;6.22;;;20.10;99.90;;;;;;5112677;28;20027;-63
2023/10/18 08:28:54;;;;;;;11.75;4.50;;;20.00;99.90;;;;;;5112565;28;20096;-62
2023/10/18 08:37:03;;;;;;;11.88;3.88;;;20.10;99.90;;;;;;5095410;28;20039;-63
2023/10/18 08:39:30;;;;;;;15.75;4.07;;;20.00;99.90;;;;;;5110312;28;20024;-63
2023/10/18 08:42:30;;;;;;;13.15;3.78;;;20.00;99.90;;;;;;5113183;28;20030;-63
2023/10/18 08:44:56;;;;;;;9.82;3.80;;;20.00;99.90;;;;;;5101100;28;20044;-62
2023/10/18 08:47:29;;;;;;;8.88;3.72;;;20.00;99.90;;;;;;5112858;28;21438;-63
2023/10/18 08:49:56;;;;;;;8.38;3.40;;;20.00;99.90;;;;;;5111237;28;20082;-63
2023/10/18 08:52:28;;;;;;;12.10;3.22;;;20.00;99.90;;;;;;5112715;28;20039;-63
2023/10/18 08:54:55;;;;;;;8.15;2.60;;;19.90;99.90;;;;;;5092279;28;20036;-63
2023/10/18 08:57:34;;;;;;;5.57;2.50;;;20.00;99.90;;;;;;5112798;28;20020;-63
2023/10/18 09:02:50;;;;;;;12.63;3.03;;;20.20;99.90;;;;;;5112095;28;20023;-63
2023/10/18 09:05:22;;;;;;;15.40;3.65;;;20.20;99.90;;;;;;5112665;28;20030;-64
2023/10/18 09:07:51;;;;;;;19.20;3.33;;;20.30;99.90;;;;;;5109861;28;20057;-64
2023/10/18 09:16:01;;;;;;;14.15;3.20;;;20.40;99.90;;;;;;5111504;28;20509;-63
2023/10/18 09:18:31;;;;;;;11.50;2.50;;;20.40;99.90;;;;;;5112110;28;20826;-64
2023/10/18 09:23:35;;;;;;;9.80;2.47;;;20.40;99.90;;;;;;5110375;28;20069;-63
2023/10/18 09:26:10;;;;;;;11.32;2.67;;;20.60;99.90;;;;;;5111525;28;20142;-62
2023/10/18 09:28:37;;;;;;;11.95;2.70;;;20.70;99.90;;;;;;5083050;28;20045;-63
2023/10/18 09:31:16;;;;;;;9.90;2.70;;;20.80;99.90;;;;;;5070951;28;20040;-63
2023/10/18 09:33:50;;;;;;;11.52;2.50;;;21.00;99.90;;;;;;5071250;28;20111;-63
2023/10/18 09:36:22;;;;;;;11.50;2.70;;;21.00;99.90;;;;;;5082144;28;20031;-63
2023/10/18 09:38:49;;;;;;;10.38;2.50;;;21.10;99.90;;;;;;5092350;28;20064;-63
2023/10/18 09:41:16;;;;;;;12.00;2.78;;;21.10;99.90;;;;;;5092274;28;20024;-63
2023/10/18 09:43:42;;;;;;;12.05;2.58;;;21.10;99.90;;;;;;5092046;28;20021;-63
2023/10/18 09:46:10;;;;;;;10.75;2.45;;;21.10;99.90;;;;;;5091372;28;20406;-63
2023/10/18 09:48:41;;;;;;;10.73;2.83;;;21.30;99.90;;;;;;5091932;28;20024;-63
2023/10/18 09:51:08;;;;;;;13.07;2.85;;;21.40;99.90;;;;;;5091852;28;20040;-63
2023/10/18 09:53:49;;;;;;;13.73;2.70;;;21.50;99.90;;;;;;5091162;28;20020;-63
2023/10/18 09:56:34;;;;;;;11.40;2.38;;;21.50;99.90;;;;;;5091534;28;20051;-62
2023/10/18 09:59:08;;;;;;;10.88;3.20;;;21.50;99.90;;;;;;5091119;28;20054;-63
2023/10/18 10:04:12;;;;;;;11.60;2.80;;;21.50;99.90;;;;;;5092246;28;20036;-63
2023/10/18 10:06:45;;;;;;;11.02;2.75;;;21.30;99.90;;;;;;5091741;28;20032;-63
2023/10/18 10:09:12;;;;;;;11.63;3.03;;;21.10;99.90;;;;;;5091638;28;20557;-62
2023/10/18 10:11:45;;;;;;;13.90;3.15;;;20.90;99.90;;;;;;5091591;28;20048;-62
2023/10/18 10:14:16;;;;;;;;;;;20.80;99.90;;;;;;5091977;28;20572;-62
2023/10/18 10:16:52;;;;;;;12.43;3.25;;;20.60;99.90;;;;;;5091708;28;19904;-62
2023/10/18 10:19:24;;;;;;;14.80;3.90;;;20.50;99.90;;;;;;5091541;28;20499;-62
2023/10/18 10:21:52;;;;;;;13.30;3.70;;;20.30;99.90;;;;;;5091669;28;20494;-62
2023/10/18 10:24:31;;;;;;;19.50;5.45;;;20.10;99.90;;;;;;5091275;28;20050;-62
2023/10/18 10:27:27;;;;;;;19.75;8.23;;;20.20;99.90;;;;;;5091381;28;20023;-61
2023/10/18 10:30:03;;;;;;;20.02;9.73;;;20.10;99.90;;;;;;5091694;28;20052;-62
2023/10/18 10:32:29;;;;;;;18.52;9.15;;;20.10;99.90;;;;;;5091253;28;20047;-62
2023/10/18 10:35:15;;;;;;;27.73;16.63;;;20.10;99.90;;;;;;5091256;28;20433;-63
2023/10/18 10:37:48;;;;;;;26.95;15.07;;;20.20;99.90;;;;;;5090359;28;20036;-63
2023/10/18 10:43:04;;;;;;;47.38;31.65;;;20.30;99.90;;;;;;5091500;28;20445;-64
2023/10/18 10:45:38;;;;;;;33.30;20.58;;;20.50;99.90;;;;;;5091113;28;20099;-63
2023/10/18 10:48:28;;;;;;;20.45;11.40;;;20.60;99.90;;;;;;5091148;28;20051;-63
2023/10/18 10:50:57;;;;;;;18.52;8.23;;;20.60;99.90;;;;;;5090715;28;20035;-63
2023/10/18 10:54:01;;;;;;;16.38;6.18;;;20.60;99.90;;;;;;5091119;28;20028;-64
2023/10/18 10:56:27;;;;;;;14.55;6.47;;;20.70;99.90;;;;;;5090323;28;20447;-63
2023/10/18 11:04:29;;;;;;;19.27;6.32;;;21.00;99.90;;;;;;5091202;28;20039;-64
2023/10/18 11:07:00;;;;;;;15.80;4.63;;;21.20;99.90;;;;;;5090952;28;20425;-63
2023/10/18 11:09:34;;;;;;;18.92;5.07;;;21.30;99.90;;;;;;5072764;28;20085;-64
2023/10/18 11:12:11;;;;;;;14.23;4.63;;;21.30;99.90;;;;;;5090911;28;20458;-64
2023/10/18 11:14:37;;;;;;;16.38;4.03;;;21.20;99.90;;;;;;5091081;28;20024;-63
2023/10/18 11:17:17;;;;;;;16.70;4.35;;;21.30;99.90;;;;;;5091158;28;20028;-63
2023/10/18 11:19:51;;;;;;;18.08;4.68;;;21.30;99.90;;;;;;5091122;28;20492;-63
2023/10/18 11:22:21;;;;;;;15.00;4.75;;;21.30;99.90;;;;;;5090941;28;20394;-64
2023/10/18 11:24:51;;;;;;;19.08;4.55;;;21.40;99.90;;;;;;5090372;28;20052;-63
2023/10/18 11:27:33;;;;;;;14.55;5.00;;;21.40;99.90;;;;;;5091337;28;20077;-64
2023/10/18 11:30:22;;;;;;;17.45;4.68;;;21.40;99.90;;;;;;5110473;28;20579;-64
2023/10/18 11:32:54;;;;;;;20.08;4.80;;;21.40;99.90;;;;;;5111282;28;20075;-63
2023/10/18 11:38:10;;;;;;;19.42;4.68;;;21.50;99.90;;;;;;5110758;28;20148;-63
2023/10/18 11:40:40;;;;;;;19.02;4.78;;;21.40;99.90;;;;;;5110916;28;20034;-63
2023/10/18 11:43:10;;;;;;;19.15;4.85;;;21.10;99.90;;;;;;5111117;28;20382;-63
2023/10/18 11:45:37;;;;;;;14.00;3.92;;;21.00;99.90;;;;;;5111316;28;20040;-63
2023/10/18 11:48:05;;;;;;;21.30;4.68;;;20.90;99.90;;;;;;5111083;28;20442;-62
2023/10/18 11:50:42;;;;;;;21.15;5.43;;;20.80;99.90;;;;;;5114192;28;20486;-63
2023/10/18 11:53:15;;;;;;;20.42;4.28;;;20.70;99.90;;;;;;5114438;28;20111;-63
2023/10/18 11:55:55;;;;;;;18.30;4.80;;;20.70;99.90;;;;;;5114845;28;20024;-64
2023/10/18 11:58:23;;;;;;;17.92;4.63;;;20.60;99.90;;;;;;5114604;28;20036;-63
2023/10/18 12:00:55;;;;;;;21.70;5.05;;;20.60;99.90;;;;;;5096788;28;20428;-63
2023/10/18 12:03:23;;;;;;;18.77;4.80;;;20.70;99.90;;;;;;5114472;28;20084;-63
2023/10/18 12:05:49;;;;;;;20.48;4.90;;;20.70;99.90;;;;;;5114480;28;20020;-63
2023/10/18 12:08:16;;;;;;;18.73;4.80;;;20.70;99.90;;;;;;5114162;28;20023;-63
2023/10/18 12:10:41;;;;;;;15.43;4.32;;;20.70;99.90;;;;;;5114623;28;20047;-63
2023/10/18 12:13:12;;;;;;;21.15;4.50;;;20.80;99.90;;;;;;5114589;28;20133;-63
2023/10/18 12:15:38;;;;;;;17.30;4.28;;;20.80;99.90;;;;;;5114239;28;20035;-64
2023/10/18 12:18:05;;;;;;;19.90;4.28;;;20.80;99.90;;;;;;5114355;28;20156;-63
2023/10/18 12:20:35;;;;;;;20.25;4.43;;;20.80;99.90;;;;;;5114328;28;20046;-64
2023/10/18 12:23:10;;;;;;;18.10;4.47;;;20.90;99.90;;;;;;5113741;28;20577;-63
2023/10/18 12:25:41;;;;;;;16.63;4.82;;;20.90;99.90;;;;;;5114307;28;20050;-63
2023/10/18 12:28:12;;;;;;;16.13;4.30;;;20.90;99.90;;;;;;5114186;28;20040;-63
2023/10/18 12:30:54;;;;;;;20.58;4.50;;;21.00;99.90;;;;;;5114144;28;20031;-63
2023/10/18 12:33:25;;;;;;;18.45;4.63;;;21.00;99.90;;;;;;5114003;28;20046;-63
2023/10/18 12:35:51;;;;;;;17.80;4.75;;;21.00;99.90;;;;;;5113658;28;20393;-63
2023/10/18 12:38:30;;;;;;;17.83;4.15;;;21.20;99.90;;;;;;5114110;28;20023;-63
2023/10/18 12:40:59;;;;;;;18.75;4.78;;;21.50;99.90;;;;;;5113817;28;20023;-63
2023/10/18 12:43:25;;;;;;;15.32;4.20;;;21.70;99.90;;;;;;5113988;28;20046;-63
2023/10/18 12:45:51;;;;;;;18.63;4.88;;;22.00;99.90;;;;;;5113896;28;20073;-63
2023/10/18 12:48:23;;;;;;;17.27;4.50;;;22.10;99.90;;;;;;5113586;28;20385;-63
2023/10/18 12:50:52;;;;;;;18.42;4.70;;;22.10;99.90;;;;;;5113274;28;20059;-63
2023/10/18 12:55:58;;;;;;;18.88;4.45;;;22.30;99.90;;;;;;5113657;28;21133;-64
2023/10/18 12:58:31;;;;;;;16.57;4.50;;;22.40;99.90;;;;;;5113490;28;20042;-64
2023/10/18 13:01:08;;;;;;;23.33;4.72;;;22.30;99.90;;;;;;5112906;28;20028;-64
2023/10/18 13:03:37;;;;;;;15.80;4.50;;;22.30;99.90;;;;;;5112900;28;20023;-64
2023/10/18 13:06:15;;;;;;;15.02;4.40;;;22.30;99.90;;;;;;5112716;28;20039;-63
2023/10/18 13:08:54;;;;;;;17.10;4.70;;;22.40;99.90;;;;;;5113419;28;20083;-63
2023/10/18 13:12:07;;;;;;;18.40;4.65;;;22.70;99.90;;;;;;5113388;28;20035;-64
2023/10/18 13:14:11;;;;;;;18.85;4.25;;;22.60;99.90;;;;;;5105414;28;20036;-64
2023/10/18 13:16:37;;;;;;;17.48;4.38;;;22.60;99.90;;;;;;5113339;28;20059;-64
2023/10/18 13:19:06;;;;;;;18.17;4.63;;;22.30;99.90;;;;;;5112904;28;20455;-64
2023/10/18 13:21:39;;;;;;;21.05;4.82;;;22.20;99.90;;;;;;5113201;28;20495;-63
2023/10/18 13:24:17;;;;;;;20.80;5.10;;;22.00;99.90;;;;;;5112930;28;20020;-64
2023/10/18 13:26:44;;;;;;;23.15;5.38;;;21.90;99.90;;;;;;5113062;28;20043;-65
2023/10/18 13:30:00;;;;;;;19.70;4.50;;;21.90;99.90;;;;;;5113026;28;20071;-64
2023/10/18 13:32:05;;;;;;;19.88;4.30;;;22.00;99.90;;;;;;5104511;28;20048;-64
2023/10/18 13:34:37;;;;;;;18.38;4.60;;;22.10;99.90;;;;;;5112466;28;20027;-65
2023/10/18 13:37:04;;;;;;;18.83;4.78;;;22.30;99.90;;;;;;5112817;28;20444;-64
2023/10/18 13:39:30;;;;;;;18.75;4.32;;;22.50;99.90;;;;;;5112976;28;20034;-64
2023/10/18 13:41:55;;;;;;;19.80;4.82;;;22.60;99.90;;;;;;5112947;28;20094;-64
2023/10/18 13:44:25;;;;;;;17.17;4.57;;;22.50;99.90;;;;;;5112605;28;20023;-64
2023/10/18 13:46:51;;;;;;;14.63;4.63;;;22.20;99.90;;;;;;5112893;28;20035;-64
2023/10/18 13:49:20;;;;;;;17.63;4.38;;;22.00;99.90;;;;;;5112441;28;20103;-64
2023/10/18 13:51:46;;;;;;;17.75;3.97;;;22.00;99.90;;;;;;5112361;28;20501;-64
2023/10/18 13:54:12;;;;;;;16.05;4.35;;;22.00;99.90;;;;;;5112443;28;20045;-64
2023/10/18 13:56:39;;;;;;;18.48;4.20;;;22.00;99.90;;;;;;5112365;28;20024;-64
2023/10/18 13:59:05;;;;;;;14.77;3.55;;;22.00;99.90;;;;;;5112637;28;20023;-65
2023/10/18 14:01:31;;;;;;;17.02;3.97;;;21.60;99.90;;;;;;5093955;28;20043;-64
2023/10/18 14:04:01;;;;;;;14.43;3.95;;;21.50;99.90;;;;;;5112081;28;20031;-65
2023/10/18 14:06:28;;;;;;;16.30;4.07;;;21.50;99.90;;;;;;5112378;28;20023;-64